Time;durP1;ratioP1;P1;durP2;ratioP2;P2;SDS_P1;SDS_P2;PMS_P1;PMS_P2;Temp;Humidity;BMP_temperature;BMP_pressure;BME280_temperature;BME280_humidity;BME280_pressure;Samples;Min_cycle;Max_cycle;Signal;HPM_P1;HPM_P2
2024/03/06 00:01:50;;;;;;;8.07;5.15;;;10.10;99.90;;;;;;5031866;28;20049;-85
2024/03/06 00:04:15;;;;;;;8.32;5.25;;;10.10;99.90;;;;;;5035120;28;20029;-88
2024/03/06 00:06:41;;;;;;;8.50;5.82;;;10.10;99.90;;;;;;5024712;28;20021;-86
2024/03/06 00:09:08;;;;;;;9.07;5.68;;;10.10;99.90;;;;;;5039806;28;20057;-87
2024/03/06 00:11:35;;;;;;;6.72;4.82;;;10.10;99.90;;;;;;5034400;28;20048;-86
2024/03/06 00:14:07;;;;;;;7.88;5.28;;;10.10;99.90;;;;;;5021686;28;20017;-85
2024/03/06 00:16:32;;;;;;;9.63;5.93;;;10.10;99.90;;;;;;5027446;28;20022;-85
2024/03/06 00:18:58;;;;;;;13.07;5.80;;;10.10;99.90;;;;;;5034977;28;20482;-87
2024/03/06 00:21:23;;;;;;;10.23;5.43;;;10.10;99.90;;;;;;5040637;28;20025;-86
2024/03/06 00:23:49;;;;;;;8.73;5.75;;;10.10;99.90;;;;;;5037174;28;20475;-87
2024/03/06 00:26:15;;;;;;;11.57;5.63;;;10.10;99.90;;;;;;5037575;28;20044;-86
2024/03/06 00:28:40;;;;;;;9.77;5.78;;;10.10;99.90;;;;;;5032748;28;20491;-86
2024/03/06 00:31:06;;;;;;;10.10;6.10;;;10.10;99.90;;;;;;5035438;28;20518;-87
2024/03/06 00:33:31;;;;;;;10.43;5.25;;;10.10;99.90;;;;;;5034867;28;20022;-86
2024/03/06 00:35:57;;;;;;;9.35;5.88;;;10.10;99.90;;;;;;5043371;28;20025;-88
2024/03/06 00:38:23;;;;;;;8.32;5.72;;;10.10;99.90;;;;;;5042548;28;20032;-87
2024/03/06 00:40:48;;;;;;;10.98;6.38;;;10.10;99.90;;;;;;5016953;28;20428;-87
2024/03/06 00:43:14;;;;;;;7.60;5.43;;;10.10;99.90;;;;;;5015940;28;20039;-87
2024/03/06 00:45:40;;;;;;;8.93;5.82;;;10.10;99.90;;;;;;5037218;28;20053;-87
2024/03/06 00:48:06;;;;;;;11.85;6.95;;;10.10;99.90;;;;;;5014922;28;20026;-87
2024/03/06 00:50:32;;;;;;;11.52;6.53;;;10.10;99.90;;;;;;5039591;28;20006;-87
2024/03/06 00:52:57;;;;;;;12.93;6.43;;;10.10;99.90;;;;;;5036417;28;20405;-87
2024/03/06 00:55:23;;;;;;;9.88;6.70;;;10.10;99.90;;;;;;5011559;28;20109;-90
2024/03/06 00:57:48;;;;;;;11.20;6.32;;;10.10;99.90;;;;;;5014137;28;20032;-86
2024/03/06 01:00:15;;;;;;;15.15;7.00;;;10.10;99.90;;;;;;5033903;28;20619;-86
2024/03/06 01:02:41;;;;;;;11.93;6.90;;;10.10;99.90;;;;;;5014476;28;20067;-86
2024/03/06 01:05:09;;;;;;;11.27;6.85;;;10.10;99.90;;;;;;5018543;28;20057;-87
2024/03/06 01:07:37;;;;;;;14.32;7.28;;;10.10;99.90;;;;;;5020101;28;20048;-87
2024/03/06 01:10:03;;;;;;;14.20;7.07;;;10.10;99.90;;;;;;5014044;28;20028;-86
2024/03/06 01:12:29;;;;;;;11.30;6.80;;;10.10;99.90;;;;;;5020899;28;20029;-85
2024/03/06 01:14:54;;;;;;;15.20;7.18;;;10.10;99.90;;;;;;5037637;28;20502;-87
2024/03/06 01:17:20;;;;;;;13.13;7.38;;;10.10;99.90;;;;;;5009673;28;20030;-87
2024/03/06 01:19:46;;;;;;;15.43;7.10;;;10.10;99.90;;;;;;5034642;28;20510;-86
2024/03/06 01:22:14;;;;;;;12.68;7.43;;;10.00;99.90;;;;;;5033740;28;20033;-87
2024/03/06 01:24:40;;;;;;;12.65;7.82;;;10.10;99.90;;;;;;5016055;28;20053;-86
2024/03/06 01:27:06;;;;;;;12.15;6.72;;;10.10;99.90;;;;;;5035385;28;20060;-86
2024/03/06 01:29:32;;;;;;;12.45;7.53;;;10.00;99.90;;;;;;5035026;28;20029;-86
2024/03/06 01:31:58;;;;;;;14.63;7.60;;;10.10;99.90;;;;;;5043917;28;20029;-87
2024/03/06 01:34:24;;;;;;;11.68;7.20;;;10.10;99.90;;;;;;5036105;28;20037;-87
2024/03/06 01:36:50;;;;;;;14.00;7.88;;;10.10;99.90;;;;;;5017020;28;20024;-87
2024/03/06 01:39:16;;;;;;;13.20;7.68;;;10.10;99.90;;;;;;5022753;28;20108;-86
2024/03/06 01:41:49;;;;;;;19.88;7.95;;;10.10;99.90;;;;;;5038319;28;20025;-86
2024/03/06 01:44:16;;;;;;;13.70;7.63;;;10.10;99.90;;;;;;5010242;28;20034;-87
2024/03/06 01:46:44;;;;;;;17.42;8.20;;;10.10;99.90;;;;;;5038182;28;20041;-87
2024/03/06 01:49:11;;;;;;;13.60;7.68;;;10.10;99.90;;;;;;5031703;28;20123;-87
2024/03/06 01:51:36;;;;;;;14.10;7.38;;;10.10;99.90;;;;;;5033717;28;20017;-87
2024/03/06 01:54:04;;;;;;;13.27;7.35;;;10.00;99.90;;;;;;5024355;28;20049;-87
2024/03/06 01:56:31;;;;;;;14.07;7.97;;;10.00;99.90;;;;;;5033359;28;20047;-87
2024/03/06 01:58:57;;;;;;;14.00;8.18;;;10.10;99.90;;;;;;5036097;28;20065;-87
2024/03/06 02:01:23;;;;;;;13.95;7.28;;;10.10;99.90;;;;;;5043472;28;20021;-86
2024/03/06 02:03:50;;;;;;;16.50;8.30;;;10.10;99.90;;;;;;5042063;28;20021;-86
2024/03/06 02:06:19;;;;;;;14.38;7.78;;;10.10;99.90;;;;;;5024284;28;20029;-86
2024/03/06 02:08:45;;;;;;;15.18;7.75;;;10.00;99.90;;;;;;5018871;28;20049;-86
2024/03/06 02:11:11;;;;;;;13.25;7.22;;;10.00;99.90;;;;;;5024603;28;20506;-87
2024/03/06 02:13:37;;;;;;;15.15;8.35;;;10.00;99.90;;;;;;5020712;28;20025;-86
2024/03/06 02:16:02;;;;;;;12.27;7.55;;;10.10;99.90;;;;;;5036816;28;20021;-87
2024/03/06 02:18:28;;;;;;;13.25;8.05;;;10.10;99.90;;;;;;5035863;28;20202;-87
2024/03/06 02:20:53;;;;;;;13.35;8.10;;;10.00;99.90;;;;;;5038767;28;20438;-86
2024/03/06 02:23:20;;;;;;;11.45;7.70;;;10.10;99.90;;;;;;5036348;28;20044;-87
2024/03/06 02:25:47;;;;;;;14.68;8.15;;;10.00;99.90;;;;;;5028920;28;20017;-85
2024/03/06 02:28:13;;;;;;;13.07;8.02;;;10.00;99.90;;;;;;5037391;28;20029;-86
2024/03/06 02:30:38;;;;;;;15.15;7.32;;;10.00;99.90;;;;;;5035557;28;20020;-87
2024/03/06 02:33:06;;;;;;;14.30;7.53;;;10.00;99.90;;;;;;5019019;28;20732;-86
2024/03/06 02:35:32;;;;;;;13.75;7.05;;;10.00;99.90;;;;;;5033996;28;20028;-85
2024/03/06 02:38:00;;;;;;;13.70;7.45;;;10.00;99.90;;;;;;5038525;28;20112;-87
2024/03/06 02:40:26;;;;;;;19.80;7.28;;;10.10;99.90;;;;;;5035343;28;20017;-86
2024/03/06 02:42:51;;;;;;;13.77;7.22;;;10.10;99.90;;;;;;5013153;28;20467;-86
2024/03/06 02:45:17;;;;;;;15.25;7.70;;;10.00;99.90;;;;;;5039025;28;20037;-86
2024/03/06 02:47:44;;;;;;;13.55;7.95;;;10.00;99.90;;;;;;5044685;28;20399;-86
2024/03/06 02:50:10;;;;;;;12.73;7.20;;;10.00;99.90;;;;;;5034897;28;20505;-86
2024/03/06 02:52:36;;;;;;;14.13;7.97;;;10.00;99.90;;;;;;5027238;28;20431;-86
2024/03/06 02:55:02;;;;;;;11.65;7.05;;;10.00;99.90;;;;;;5012170;28;20112;-87
2024/03/06 02:57:28;;;;;;;11.85;6.88;;;10.10;99.90;;;;;;5017608;28;20391;-87
2024/03/06 02:59:55;;;;;;;10.38;6.85;;;10.00;99.90;;;;;;5032753;28;20072;-86
2024/03/06 03:02:20;;;;;;;12.93;7.15;;;10.10;99.90;;;;;;5035641;28;20566;-86
2024/03/06 03:04:46;;;;;;;15.82;7.70;;;10.10;99.90;;;;;;5034960;28;20109;-86
2024/03/06 03:07:12;;;;;;;12.68;7.10;;;10.00;99.90;;;;;;5026134;28;20375;-86
2024/03/06 03:09:38;;;;;;;18.80;7.53;;;10.00;99.90;;;;;;5040202;28;20021;-87
2024/03/06 03:12:03;;;;;;;13.75;7.65;;;10.00;99.90;;;;;;5030158;28;20438;-86
2024/03/06 03:14:29;;;;;;;9.93;6.53;;;10.00;99.90;;;;;;5032795;28;20021;-87
2024/03/06 03:16:55;;;;;;;13.75;7.80;;;10.00;99.90;;;;;;5033712;28;20079;-87
2024/03/06 03:19:20;;;;;;;12.40;7.30;;;10.00;99.90;;;;;;5023662;28;20087;-86
2024/03/06 03:21:46;;;;;;;13.38;7.20;;;10.00;99.90;;;;;;5014504;28;20014;-86
2024/03/06 03:24:11;;;;;;;11.70;7.75;;;10.00;99.90;;;;;;5009423;28;20108;-86
2024/03/06 03:26:37;;;;;;;12.35;7.43;;;10.10;99.90;;;;;;5024121;28;20033;-86
2024/03/06 03:29:03;;;;;;;15.63;6.80;;;10.10;99.90;;;;;;5023200;28;20421;-88
2024/03/06 03:31:29;;;;;;;12.70;6.57;;;10.00;99.90;;;;;;5015912;28;20088;-86
2024/03/06 03:33:54;;;;;;;12.73;6.65;;;10.00;99.90;;;;;;5024410;28;20139;-88
2024/03/06 03:36:20;;;;;;;12.77;7.05;;;10.00;99.90;;;;;;5014612;28;20482;-85
2024/03/06 03:38:45;;;;;;;13.63;6.78;;;10.00;99.90;;;;;;5043844;28;20533;-87
2024/03/06 03:41:16;;;;;;;12.70;7.45;;;10.00;99.90;;;;;;5030128;28;20033;-87
2024/03/06 03:43:42;;;;;;;13.45;6.88;;;10.00;99.90;;;;;;5017933;28;20021;-87
2024/03/06 03:46:08;;;;;;;12.90;7.30;;;10.00;99.90;;;;;;5032955;28;20036;-87
2024/03/06 03:48:37;;;;;;;12.15;6.90;;;10.00;99.90;;;;;;5037007;28;20021;-87
2024/03/06 03:51:04;;;;;;;11.77;6.95;;;10.00;99.90;;;;;;5038079;28;20022;-87
2024/03/06 03:53:30;;;;;;;10.98;6.35;;;10.00;99.90;;;;;;5031908;28;20107;-86
2024/03/06 03:55:56;;;;;;;16.80;7.03;;;10.00;99.90;;;;;;5019843;28;20483;-87
2024/03/06 03:58:21;;;;;;;16.48;7.13;;;10.00;99.90;;;;;;5035943;28;20068;-85
2024/03/06 04:00:47;;;;;;;11.90;6.75;;;10.00;99.90;;;;;;5023971;28;20406;-87
2024/03/06 04:03:12;;;;;;;11.13;6.85;;;10.00;99.90;;;;;;5037411;28;20483;-86
2024/03/06 04:05:38;;;;;;;11.25;6.72;;;10.00;99.90;;;;;;5037044;28;20033;-87
2024/03/06 04:08:06;;;;;;;11.18;6.80;;;10.00;99.90;;;;;;5035227;28;20109;-87
2024/03/06 04:10:32;;;;;;;9.93;6.75;;;10.00;99.90;;;;;;5013811;28;20029;-87
2024/03/06 04:12:59;;;;;;;12.43;7.43;;;10.00;99.90;;;;;;5036228;28;20100;-86
2024/03/06 04:15:25;;;;;;;12.57;7.05;;;10.00;99.90;;;;;;5020367;28;20104;-87
2024/03/06 04:17:52;;;;;;;13.02;6.63;;;10.00;99.90;;;;;;5036783;28;20072;-87
2024/03/06 04:20:18;;;;;;;12.77;6.70;;;10.00;99.90;;;;;;5017980;28;20033;-85
2024/03/06 04:22:46;;;;;;;10.30;6.75;;;10.00;99.90;;;;;;5031655;28;20101;-87
2024/03/06 04:25:11;;;;;;;11.68;6.15;;;10.00;99.90;;;;;;5035030;28;20479;-86
2024/03/06 04:27:37;;;;;;;15.32;6.97;;;10.00;99.90;;;;;;5035775;28;20180;-87
2024/03/06 04:30:04;;;;;;;13.07;7.72;;;10.00;99.90;;;;;;5019053;28;20056;-86
2024/03/06 04:32:29;;;;;;;15.23;6.78;;;10.00;99.90;;;;;;5041302;28;20092;-86
2024/03/06 04:34:56;;;;;;;14.30;7.75;;;10.00;99.90;;;;;;5034430;28;20101;-86
2024/03/06 04:37:21;;;;;;;11.18;6.78;;;10.00;99.90;;;;;;5035653;28;20458;-87
2024/03/06 04:39:47;;;;;;;10.90;6.57;;;10.00;99.90;;;;;;5032195;28;20029;-86
2024/03/06 04:42:13;;;;;;;12.25;7.38;;;10.00;99.90;;;;;;5039860;28;20028;-86
2024/03/06 04:44:38;;;;;;;9.55;6.32;;;10.00;99.90;;;;;;5028929;28;20441;-86
2024/03/06 04:47:04;;;;;;;12.82;6.72;;;10.00;99.90;;;;;;5037278;28;20045;-88
2024/03/06 04:49:34;;;;;;;12.65;6.53;;;9.90;99.90;;;;;;5015463;28;20033;-87
2024/03/06 04:51:59;;;;;;;11.32;6.80;;;10.00;99.90;;;;;;5034926;28;20471;-87
2024/03/06 04:54:25;;;;;;;12.90;6.13;;;9.90;99.90;;;;;;5035527;28;20045;-87
2024/03/06 04:56:50;;;;;;;11.93;6.50;;;10.00;99.90;;;;;;5032984;28;20029;-86
2024/03/06 04:59:16;;;;;;;9.40;6.38;;;10.00;99.90;;;;;;5016330;28;20021;-87
2024/03/06 05:01:43;;;;;;;12.00;6.85;;;9.90;99.90;;;;;;5034656;28;20108;-87
2024/03/06 05:04:09;;;;;;;10.48;6.25;;;10.00;99.90;;;;;;5027206;28;20024;-86
2024/03/06 05:06:34;;;;;;;12.18;6.20;;;10.00;99.90;;;;;;5038888;28;20030;-88
2024/03/06 05:09:01;;;;;;;11.80;6.80;;;10.00;99.90;;;;;;5015849;28;20105;-86
2024/03/06 05:11:27;;;;;;;10.82;6.55;;;10.00;99.90;;;;;;5035947;28;20022;-86
2024/03/06 05:13:52;;;;;;;10.30;6.43;;;10.00;99.90;;;;;;5035689;28;20032;-86
2024/03/06 05:16:18;;;;;;;10.20;6.80;;;9.90;99.90;;;;;;5035993;28;20022;-86
2024/03/06 05:18:43;;;;;;;11.30;5.72;;;9.90;99.90;;;;;;5009529;28;20112;-87
2024/03/06 05:21:09;;;;;;;7.93;5.28;;;9.90;99.90;;;;;;5020925;28;20474;-88
2024/03/06 05:23:34;;;;;;;9.98;6.00;;;9.90;99.90;;;;;;5040306;28;20490;-87
2024/03/06 05:26:00;;;;;;;13.77;6.97;;;10.00;99.90;;;;;;5037514;28;20053;-85
2024/03/06 05:28:26;;;;;;;9.43;6.13;;;10.00;99.90;;;;;;5039544;28;20030;-86
2024/03/06 05:30:51;;;;;;;11.93;5.97;;;9.90;99.90;;;;;;5026546;28;20025;-87
2024/03/06 05:33:17;;;;;;;8.77;5.93;;;10.00;99.90;;;;;;5028725;28;20087;-86
2024/03/06 05:35:42;;;;;;;9.77;5.68;;;10.00;99.90;;;;;;5017467;28;20022;-88
2024/03/06 05:38:08;;;;;;;9.30;5.40;;;9.90;99.90;;;;;;5040384;28;20509;-88
2024/03/06 05:40:37;;;;;;;9.65;5.95;;;9.90;99.90;;;;;;5035236;28;20029;-87
2024/03/06 05:43:03;;;;;;;8.07;4.97;;;9.90;99.90;;;;;;5040657;28;20010;-90
2024/03/06 05:45:29;;;;;;;9.23;5.75;;;9.90;99.90;;;;;;5030741;28;20064;-89
2024/03/06 05:47:54;;;;;;;8.18;5.18;;;9.90;99.90;;;;;;5016486;28;20498;-87
2024/03/06 05:50:20;;;;;;;8.48;5.38;;;9.90;99.90;;;;;;5031642;28;20018;-87
2024/03/06 05:52:45;;;;;;;8.27;5.20;;;9.90;99.90;;;;;;5026594;28;20066;-87
2024/03/06 05:55:11;;;;;;;7.43;4.88;;;9.90;99.90;;;;;;5038357;28;20025;-87
2024/03/06 05:57:36;;;;;;;7.68;4.93;;;9.90;99.90;;;;;;5040939;28;20026;-87
2024/03/06 06:00:04;;;;;;;7.22;4.43;;;9.90;99.90;;;;;;5021192;28;20108;-86
2024/03/06 06:02:30;;;;;;;9.02;4.72;;;9.90;99.90;;;;;;5010087;28;20029;-86
2024/03/06 06:04:55;;;;;;;7.47;4.20;;;9.90;99.90;;;;;;5020263;28;20394;-86
2024/03/06 06:07:21;;;;;;;7.10;4.38;;;9.90;99.90;;;;;;5032080;28;20025;-86
2024/03/06 06:09:46;;;;;;;8.75;5.10;;;9.90;99.90;;;;;;5017179;28;20033;-86
2024/03/06 06:12:12;;;;;;;7.93;4.82;;;9.90;99.90;;;;;;5020197;28;20021;-85
2024/03/06 06:14:37;;;;;;;7.40;4.78;;;9.90;99.90;;;;;;5019020;28;20028;-87
2024/03/06 06:17:03;;;;;;;8.43;4.38;;;9.90;99.90;;;;;;5015869;28;20014;-85
2024/03/06 06:19:29;;;;;;;6.53;4.35;;;9.90;99.90;;;;;;5021247;28;20021;-87
2024/03/06 06:21:55;;;;;;;7.55;4.45;;;9.90;99.90;;;;;;5043972;28;20079;-85
2024/03/06 06:24:20;;;;;;;8.32;4.32;;;9.90;99.90;;;;;;5040719;28;20032;-85
2024/03/06 06:26:46;;;;;;;7.00;4.55;;;9.90;99.90;;;;;;5038921;28;20016;-88
2024/03/06 06:29:11;;;;;;;6.30;4.18;;;9.90;99.90;;;;;;5018729;28;20025;-88
2024/03/06 06:31:37;;;;;;;5.35;3.72;;;9.90;99.90;;;;;;5025885;28;20028;-87
2024/03/06 06:34:02;;;;;;;6.32;4.05;;;9.90;99.90;;;;;;5025223;28;20030;-89
2024/03/06 06:36:29;;;;;;;6.55;4.13;;;9.90;99.90;;;;;;5031114;28;20021;-87
2024/03/06 06:38:55;;;;;;;4.90;3.20;;;9.90;99.90;;;;;;5022549;28;20053;-89
2024/03/06 06:41:20;;;;;;;7.00;3.83;;;9.90;99.90;;;;;;5036852;28;20099;-86
2024/03/06 06:43:46;;;;;;;6.50;3.65;;;9.90;99.90;;;;;;5046128;28;20043;-87
2024/03/06 06:46:12;;;;;;;6.72;4.25;;;9.90;99.90;;;;;;5032654;28;20052;-86
2024/03/06 06:48:37;;;;;;;6.13;3.65;;;9.90;99.90;;;;;;5023291;28;20025;-86
2024/03/06 06:51:03;;;;;;;7.28;4.50;;;9.90;99.90;;;;;;5036631;28;20021;-85
2024/03/06 06:53:29;;;;;;;6.60;4.20;;;9.90;99.90;;;;;;5040627;28;20116;-87
2024/03/06 06:55:55;;;;;;;6.80;3.72;;;9.90;99.90;;;;;;5023658;28;20025;-87
2024/03/06 06:58:21;;;;;;;11.00;4.07;;;9.90;99.90;;;;;;5024453;28;20492;-86
2024/03/06 07:00:46;;;;;;;7.68;4.30;;;9.90;99.90;;;;;;5023444;28;20496;-86
2024/03/06 07:03:12;;;;;;;6.82;3.75;;;9.90;99.90;;;;;;5032321;28;20018;-88
2024/03/06 07:05:38;;;;;;;16.13;4.50;;;9.90;99.90;;;;;;5012648;28;20024;-87
2024/03/06 07:08:04;;;;;;;7.18;4.18;;;9.90;99.90;;;;;;5038604;28;20025;-87
2024/03/06 07:10:30;;;;;;;7.47;4.78;;;9.90;99.90;;;;;;5020157;28;20470;-88
2024/03/06 07:12:55;;;;;;;7.88;4.30;;;9.90;99.90;;;;;;5030841;28;20029;-86
2024/03/06 07:15:21;;;;;;;14.68;4.88;;;9.90;99.90;;;;;;5034870;28;20036;-86
2024/03/06 07:17:47;;;;;;;8.95;4.38;;;9.90;99.90;;;;;;5036172;28;20101;-86
2024/03/06 07:20:14;;;;;;;9.70;4.60;;;9.90;99.90;;;;;;5014242;28;20021;-87
2024/03/06 07:22:39;;;;;;;6.25;3.95;;;9.90;99.90;;;;;;5037619;28;20013;-87
2024/03/06 07:25:05;;;;;;;8.43;4.60;;;9.90;99.90;;;;;;5039294;28;20387;-87
2024/03/06 07:27:31;;;;;;;7.30;4.50;;;9.90;99.90;;;;;;5040606;28;20021;-87
2024/03/06 07:29:56;;;;;;;8.23;4.30;;;9.90;99.90;;;;;;5035878;28;20029;-86
2024/03/06 07:32:22;;;;;;;8.70;4.50;;;9.90;99.90;;;;;;5008407;28;20045;-86
2024/03/06 07:34:48;;;;;;;9.05;4.55;;;9.90;99.90;;;;;;5034270;28;20067;-86
2024/03/06 07:37:14;;;;;;;8.02;4.20;;;9.90;99.90;;;;;;5016835;28;20026;-87
2024/03/06 07:39:40;;;;;;;5.70;4.05;;;9.90;99.90;;;;;;5013181;28;20052;-85
2024/03/06 07:42:06;;;;;;;7.13;4.55;;;9.90;99.90;;;;;;5020678;28;20063;-87
2024/03/06 07:44:31;;;;;;;6.88;4.25;;;9.90;99.90;;;;;;5036740;28;20028;-88
2024/03/06 07:46:57;;;;;;;8.90;4.72;;;9.90;99.90;;;;;;5016552;28;20099;-87
2024/03/06 07:49:22;;;;;;;7.57;4.40;;;9.90;99.90;;;;;;5038871;28;20025;-86
2024/03/06 07:51:48;;;;;;;5.72;4.10;;;9.90;99.90;;;;;;5015242;28;20441;-87
2024/03/06 07:54:14;;;;;;;7.13;4.47;;;9.90;99.90;;;;;;5021088;28;20021;-87
2024/03/06 07:56:40;;;;;;;6.45;4.63;;;9.80;99.90;;;;;;5022506;28;20044;-87
2024/03/06 07:59:05;;;;;;;7.43;4.50;;;9.90;99.90;;;;;;5034351;28;20041;-87
2024/03/06 08:01:32;;;;;;;5.55;4.15;;;9.90;99.90;;;;;;5033636;28;20519;-87
2024/03/06 08:03:58;;;;;;;6.85;4.50;;;9.90;99.90;;;;;;5014188;28;20544;-87
2024/03/06 08:06:23;;;;;;;7.03;4.75;;;9.90;99.90;;;;;;5036067;28;20025;-87
2024/03/06 08:08:49;;;;;;;8.02;4.30;;;9.80;99.90;;;;;;5017133;28;20017;-87
2024/03/06 08:11:15;;;;;;;8.73;4.65;;;9.90;99.90;;;;;;5038881;28;20018;-88
2024/03/06 08:13:41;;;;;;;6.47;4.30;;;9.90;99.90;;;;;;5018344;28;20378;-88
2024/03/06 08:16:07;;;;;;;8.38;5.13;;;9.80;99.90;;;;;;5038933;28;20018;-87
2024/03/06 08:18:34;;;;;;;8.70;5.00;;;9.90;99.90;;;;;;5015263;28;20025;-88
2024/03/06 08:21:00;;;;;;;7.13;4.90;;;9.90;99.90;;;;;;5022055;28;20107;-88
2024/03/06 08:23:26;;;;;;;7.80;4.45;;;9.90;99.90;;;;;;5014860;28;20017;-88
2024/03/06 08:25:52;;;;;;;6.55;4.75;;;9.90;99.90;;;;;;5022191;28;20431;-85
2024/03/06 08:28:18;;;;;;;7.85;4.80;;;9.80;99.90;;;;;;5018828;28;20621;-86
2024/03/06 08:30:44;;;;;;;7.72;4.82;;;9.80;99.90;;;;;;5032647;28;20021;-86
2024/03/06 08:33:10;;;;;;;7.13;4.72;;;9.90;99.90;;;;;;5012850;28;20020;-87
2024/03/06 08:35:36;;;;;;;8.88;5.20;;;9.80;99.90;;;;;;5034685;28;20156;-86
2024/03/06 08:38:01;;;;;;;9.15;5.13;;;9.90;99.90;;;;;;5038650;28;20494;-86
2024/03/06 08:40:28;;;;;;;7.70;4.65;;;9.80;99.90;;;;;;5022454;28;20483;-86
2024/03/06 08:42:54;;;;;;;8.10;5.13;;;9.80;99.90;;;;;;5016624;28;20077;-87
2024/03/06 08:45:20;;;;;;;7.82;4.82;;;9.90;99.90;;;;;;5020163;28;20025;-86
2024/03/06 08:47:46;;;;;;;9.35;4.80;;;9.90;99.90;;;;;;5041125;28;20032;-86
2024/03/06 08:50:12;;;;;;;8.18;4.97;;;9.80;99.90;;;;;;5033693;28;20021;-87
2024/03/06 08:52:38;;;;;;;7.18;4.57;;;9.90;99.90;;;;;;5033523;28;20398;-86
2024/03/06 08:55:08;;;;;;;8.25;4.65;;;9.90;99.90;;;;;;5022269;28;20067;-85
2024/03/06 08:57:37;;;;;;;7.77;4.60;;;9.90;99.90;;;;;;5027985;28;20045;-85
2024/03/06 09:00:10;;;;;;;6.47;4.53;;;9.90;99.90;;;;;;5010131;28;20275;-85
2024/03/06 09:02:38;;;;;;;8.68;4.70;;;9.80;99.90;;;;;;5009527;28;20021;-85
2024/03/06 09:05:10;;;;;;;10.15;5.00;;;9.90;99.90;;;;;;5018398;28;20032;-85
2024/03/06 09:07:40;;;;;;;7.15;4.88;;;9.90;99.90;;;;;;5011749;28;20120;-85
2024/03/06 09:10:06;;;;;;;7.25;4.47;;;9.90;99.90;;;;;;5017866;28;20473;-84
2024/03/06 09:12:32;;;;;;;12.38;5.85;;;9.90;99.90;;;;;;5019294;28;20104;-85
2024/03/06 09:15:00;;;;;;;8.38;5.15;;;9.90;99.90;;;;;;5040697;28;20034;-85
2024/03/06 09:17:26;;;;;;;10.80;4.80;;;9.90;99.90;;;;;;5032879;28;20018;-86
2024/03/06 09:19:51;;;;;;;11.05;5.07;;;9.90;99.90;;;;;;5035823;28;20029;-85
2024/03/06 09:22:17;;;;;;;10.43;5.28;;;9.90;99.90;;;;;;5019975;28;20399;-85
2024/03/06 09:24:43;;;;;;;8.68;5.40;;;9.90;99.90;;;;;;5017316;28;20475;-85
2024/03/06 09:27:08;;;;;;;9.18;5.18;;;9.90;99.90;;;;;;5007313;28;20435;-85
2024/03/06 09:29:34;;;;;;;9.18;5.45;;;9.90;99.90;;;;;;5030179;28;20132;-86
2024/03/06 09:31:59;;;;;;;10.63;5.28;;;9.90;99.90;;;;;;5037406;28;20512;-86
2024/03/06 09:34:25;;;;;;;9.38;5.53;;;9.90;99.90;;;;;;5007889;28;20113;-86
2024/03/06 09:36:51;;;;;;;11.90;5.85;;;9.90;99.90;;;;;;5020296;28;20064;-85
2024/03/06 09:39:23;;;;;;;11.40;6.10;;;9.90;99.90;;;;;;5018588;28;20571;-85
2024/03/06 09:41:50;;;;;;;9.07;4.53;;;9.90;99.90;;;;;;5023132;28;20614;-87
2024/03/06 09:44:16;;;;;;;8.27;4.97;;;9.90;99.90;;;;;;5011179;28;20022;-85
2024/03/06 09:46:46;;;;;;;9.80;5.28;;;9.90;99.90;;;;;;5013930;28;20033;-86
2024/03/06 09:49:19;;;;;;;9.30;5.70;;;9.90;99.90;;;;;;5038287;28;20024;-85
2024/03/06 09:51:52;;;;;;;9.55;5.22;;;9.90;99.90;;;;;;5040985;28;20056;-85
2024/03/06 09:54:19;;;;;;;12.55;5.95;;;10.00;99.90;;;;;;5039690;28;20488;-85
2024/03/06 09:56:46;;;;;;;10.80;6.15;;;10.00;99.90;;;;;;5017658;28;20502;-86
2024/03/06 09:59:12;;;;;;;11.65;5.90;;;9.90;99.90;;;;;;5016873;28;20039;-85
2024/03/06 10:01:49;;;;;;;10.43;5.60;;;10.00;99.90;;;;;;5016317;28;20021;-85
2024/03/06 10:04:21;;;;;;;10.27;5.68;;;10.00;99.90;;;;;;5039271;28;20486;-85
2024/03/06 10:06:48;;;;;;;9.10;4.97;;;10.00;99.90;;;;;;5022240;28;20025;-85
2024/03/06 10:09:17;;;;;;;9.13;5.25;;;10.00;99.90;;;;;;5033890;28;20021;-86
2024/03/06 10:11:42;;;;;;;7.82;4.90;;;10.00;99.90;;;;;;5017733;28;20025;-85
2024/03/06 10:14:10;;;;;;;9.93;5.88;;;10.00;99.90;;;;;;5036964;28;20036;-87
2024/03/06 10:16:36;;;;;;;8.05;4.88;;;10.00;99.90;;;;;;5038097;28;20475;-85
2024/03/06 10:19:18;;;;;;;10.32;5.03;;;10.00;99.90;;;;;;5037405;28;20029;-86
2024/03/06 10:21:53;;;;;;;8.43;5.00;;;10.00;99.90;;;;;;5044522;28;20016;-85
2024/03/06 10:24:20;;;;;;;10.15;5.05;;;10.00;99.90;;;;;;5028872;28;20036;-85
2024/03/06 10:26:46;;;;;;;9.00;4.97;;;10.00;99.90;;;;;;5015996;28;20017;-85
2024/03/06 10:29:18;;;;;;;9.90;4.72;;;10.00;99.90;;;;;;5039466;28;20032;-85
2024/03/06 10:31:54;;;;;;;7.00;4.82;;;10.00;99.90;;;;;;5032974;28;20017;-86
2024/03/06 10:34:20;;;;;;;8.45;4.82;;;10.00;99.90;;;;;;5041285;28;20028;-85
2024/03/06 10:36:58;;;;;;;6.57;4.13;;;10.00;99.90;;;;;;5037902;28;20020;-85
2024/03/06 10:39:24;;;;;;;8.38;4.72;;;10.00;99.90;;;;;;5020168;28;20022;-86
2024/03/06 10:41:54;;;;;;;10.63;4.82;;;10.00;99.90;;;;;;5026461;28;20112;-85
2024/03/06 10:44:28;;;;;;;6.38;3.95;;;10.00;99.90;;;;;;5034145;28;20486;-88
2024/03/06 10:47:05;;;;;;;8.13;4.38;;;10.00;99.90;;;;;;5020958;28;20069;-87
2024/03/06 10:49:32;;;;;;;5.28;4.13;;;10.00;99.90;;;;;;5044015;28;20463;-88
2024/03/06 10:52:03;;;;;;;8.45;4.43;;;10.00;99.90;;;;;;5032589;28;20036;-87
2024/03/06 10:54:29;;;;;;;;;;;10.00;99.90;;;;;;5012803;28;20033;-85
2024/03/06 10:56:56;;;;;;;6.22;4.18;;;10.00;99.90;;;;;;5016959;28;20569;-86
2024/03/06 10:59:27;;;;;;;8.60;4.18;;;10.00;99.90;;;;;;5015494;28;20116;-87
2024/03/06 11:02:02;;;;;;;8.52;5.05;;;10.00;99.90;;;;;;5018213;28;20676;-86
2024/03/06 11:04:34;;;;;;;9.52;4.57;;;10.00;99.90;;;;;;5041216;28;20100;-86
2024/03/06 11:07:02;;;;;;;6.57;3.78;;;10.00;99.90;;;;;;5033357;28;20028;-87
2024/03/06 11:09:28;;;;;;;8.15;4.10;;;10.00;99.90;;;;;;5024365;28;20026;-87
2024/03/06 11:11:56;;;;;;;7.00;4.28;;;10.00;99.90;;;;;;5027251;28;20021;-86
2024/03/06 11:14:22;;;;;;;6.88;4.45;;;10.10;99.90;;;;;;5015984;28;20391;-85
2024/03/06 11:17:02;;;;;;;6.40;4.50;;;10.00;99.90;;;;;;5036748;28;20064;-87
2024/03/06 11:19:31;;;;;;;;;;;10.10;99.90;;;;;;5001064;28;20046;-86
2024/03/06 11:21:57;;;;;;;5.90;3.38;;;10.10;99.90;;;;;;5032895;28;19952;-86
2024/03/06 11:24:24;;;;;;;7.70;4.35;;;10.00;99.90;;;;;;5014623;28;20016;-86
2024/03/06 11:26:50;;;;;;;7.25;3.55;;;10.10;99.90;;;;;;5012737;28;20050;-87
2024/03/06 11:29:19;;;;;;;8.68;4.50;;;10.10;99.90;;;;;;5011631;28;20112;-86
2024/03/06 11:32:03;;;;;;;8.88;4.00;;;10.10;99.90;;;;;;5020264;28;20021;-87
2024/03/06 11:34:30;;;;;;;4.80;3.45;;;10.10;99.90;;;;;;5023056;28;20089;-86
2024/03/06 11:36:59;;;;;;;7.85;4.60;;;10.10;99.90;;;;;;5036254;28;20028;-86
2024/03/06 11:39:30;;;;;;;9.05;4.30;;;10.10;99.90;;;;;;5037614;28;20020;-86
2024/03/06 11:41:56;;;;;;;9.02;4.43;;;10.10;99.90;;;;;;5033784;28;20017;-87
2024/03/06 11:44:23;;;;;;;8.95;4.13;;;10.10;99.90;;;;;;5032276;28;20104;-86
2024/03/06 11:46:58;;;;;;;7.10;4.10;;;10.10;99.90;;;;;;5019357;28;20028;-86
2024/03/06 11:49:25;;;;;;;5.88;4.25;;;10.10;99.90;;;;;;5034427;28;20021;-86
2024/03/06 11:51:53;;;;;;;8.10;4.20;;;10.10;99.90;;;;;;5010196;28;20530;-86
2024/03/06 11:54:23;;;;;;;7.60;3.55;;;10.10;99.90;;;;;;5017843;28;20067;-86
2024/03/06 11:56:50;;;;;;;6.65;4.05;;;10.10;99.90;;;;;;5015139;28;20018;-87
2024/03/06 11:59:16;;;;;;;6.40;4.00;;;10.10;99.90;;;;;;5033481;28;20035;-86
2024/03/06 12:01:42;;;;;;;7.90;3.90;;;10.10;99.90;;;;;;5041764;28;20024;-85
2024/03/06 12:04:07;;;;;;;7.93;4.63;;;10.10;99.90;;;;;;5037220;28;20052;-89
2024/03/06 12:06:33;;;;;;;8.02;4.10;;;10.10;99.90;;;;;;5024468;28;20045;-87
2024/03/06 12:08:59;;;;;;;8.45;4.68;;;10.20;99.90;;;;;;5040433;28;20029;-86
2024/03/06 12:11:25;;;;;;;7.75;4.05;;;10.10;99.90;;;;;;5011864;28;20039;-87
2024/03/06 12:13:55;;;;;;;9.18;4.55;;;10.10;99.90;;;;;;5037985;28;20021;-87
2024/03/06 12:16:21;;;;;;;7.63;4.15;;;10.10;99.90;;;;;;5023240;28;20051;-87
2024/03/06 12:18:46;;;;;;;8.35;4.60;;;10.10;99.90;;;;;;5013631;28;20057;-86
2024/03/06 12:21:15;;;;;;;8.85;4.97;;;10.10;99.90;;;;;;5006113;28;20034;-87
2024/03/06 12:23:41;;;;;;;7.32;3.92;;;10.10;99.90;;;;;;5012277;28;20524;-86
2024/03/06 12:26:09;;;;;;;7.47;4.35;;;10.20;99.90;;;;;;5015772;28;20029;-89
2024/03/06 12:28:36;;;;;;;7.95;4.22;;;10.10;99.90;;;;;;5039988;28;20594;-86
2024/03/06 12:31:03;;;;;;;13.60;5.22;;;10.20;99.90;;;;;;5025909;28;20025;-86
2024/03/06 12:33:28;;;;;;;8.25;4.68;;;10.20;99.90;;;;;;5013267;28;20116;-86
2024/03/06 12:36:01;;;;;;;7.05;3.95;;;10.20;99.90;;;;;;5012821;28;20567;-86
2024/03/06 12:38:29;;;;;;;7.05;4.75;;;10.20;99.90;;;;;;5033379;28;20431;-86
2024/03/06 12:40:55;;;;;;;7.32;4.65;;;10.10;99.90;;;;;;5038943;28;20033;-86
2024/03/06 12:43:20;;;;;;;9.15;5.15;;;10.10;99.90;;;;;;5029078;28;20110;-86